Time;durP1;ratioP1;P1;durP2;ratioP2;P2;SDS_P1;SDS_P2;PMS_P1;PMS_P2;Temp;Humidity;BMP_temperature;BMP_pressure;BME280_temperature;BME280_humidity;BME280_pressure;Samples;Min_cycle;Max_cycle;Signal;HPM_P1;HPM_P2
2022/09/17 00:02:14;;;;;;;4.78;2.63;;;22.50;70.00;;;;;;6129677;28;80874;-58
2022/09/17 00:05:15;;;;;;;4.00;2.38;;;22.50;70.00;;;;;;6113104;28;80442;-58
2022/09/17 00:08:15;;;;;;;4.80;2.13;;;22.50;70.00;;;;;;6112826;28;81123;-58
2022/09/17 00:11:16;;;;;;;3.60;2.33;;;22.50;70.10;;;;;;6114879;28;80499;-58
2022/09/17 00:14:16;;;;;;;4.85;2.53;;;22.40;70.10;;;;;;6126074;28;80203;-59
2022/09/17 00:17:17;;;;;;;4.38;2.58;;;22.50;69.90;;;;;;6112142;28;83665;-60
2022/09/17 00:20:17;;;;;;;3.63;2.13;;;22.50;70.10;;;;;;6125514;28;80031;-59
2022/09/17 00:23:18;;;;;;;2.60;2.03;;;22.40;70.00;;;;;;6121867;28;80220;-60
2022/09/17 00:26:18;;;;;;;3.05;1.90;;;22.40;70.00;;;;;;6115383;28;80746;-60
2022/09/17 00:29:19;;;;;;;3.45;2.03;;;22.40;70.00;;;;;;6108380;28;81347;-60
2022/09/17 00:32:19;;;;;;;2.38;2.05;;;22.40;69.90;;;;;;6130211;28;81462;-60
2022/09/17 00:35:20;;;;;;;2.45;2.00;;;22.40;69.80;;;;;;6114512;28;80590;-59
2022/09/17 00:38:20;;;;;;;2.38;2.17;;;22.40;69.70;;;;;;6116349;28;83766;-59
2022/09/17 00:41:20;;;;;;;2.67;2.20;;;22.40;69.70;;;;;;6103865;28;81232;-59
2022/09/17 00:44:21;;;;;;;3.33;2.13;;;22.40;69.60;;;;;;6125959;28;82607;-60
2022/09/17 00:47:21;;;;;;;3.22;2.10;;;22.40;69.70;;;;;;6122588;28;80450;-59
2022/09/17 00:50:22;;;;;;;3.97;2.15;;;22.40;69.60;;;;;;6113554;28;88102;-62
2022/09/17 00:53:22;;;;;;;3.92;2.20;;;22.40;69.60;;;;;;6123898;28;80498;-62
2022/09/17 00:56:23;;;;;;;2.38;1.83;;;22.40;69.60;;;;;;6126660;28;80390;-62
2022/09/17 00:59:23;;;;;;;3.83;2.30;;;22.40;69.50;;;;;;6114129;28;80851;-62
2022/09/17 01:02:24;;;;;;;2.13;1.88;;;22.40;69.30;;;;;;6116995;28;80726;-62
2022/09/17 01:05:24;;;;;;;2.65;2.00;;;22.40;69.30;;;;;;6125331;28;80096;-64
2022/09/17 01:08:25;;;;;;;2.60;2.10;;;22.50;69.30;;;;;;6126542;28;80361;-63
2022/09/17 01:11:25;;;;;;;2.63;1.92;;;22.40;69.30;;;;;;6124232;28;82045;-63
2022/09/17 01:14:26;;;;;;;3.13;2.40;;;22.40;69.30;;;;;;6110220;28;80965;-63
2022/09/17 01:17:26;;;;;;;5.93;2.58;;;22.40;69.20;;;;;;6117323;28;82497;-73
2022/09/17 01:20:27;;;;;;;4.05;1.90;;;22.50;69.20;;;;;;6102965;28;80342;-62
2022/09/17 01:23:27;;;;;;;1.92;1.70;;;22.50;69.10;;;;;;6121039;28;80833;-63
2022/09/17 01:26:28;;;;;;;4.00;2.13;;;22.50;69.20;;;;;;6121012;28;83161;-63
2022/09/17 01:29:28;;;;;;;3.15;2.42;;;22.50;69.10;;;;;;6126076;28;80456;-62
2022/09/17 01:32:29;;;;;;;3.00;2.17;;;22.50;69.20;;;;;;6127140;28;85958;-62
2022/09/17 01:35:30;;;;;;;2.80;2.28;;;22.50;69.30;;;;;;6131714;28;80713;-62
2022/09/17 01:38:30;;;;;;;3.17;2.03;;;22.50;69.30;;;;;;6119001;28;82114;-62
2022/09/17 01:41:31;;;;;;;2.50;1.95;;;22.40;69.60;;;;;;6122575;28;80517;-61
2022/09/17 01:44:31;;;;;;;4.13;2.13;;;22.40;69.40;;;;;;6117183;28;82281;-62
2022/09/17 01:47:32;;;;;;;2.72;2.13;;;22.40;69.40;;;;;;6116839;28;80965;-61
2022/09/17 01:50:32;;;;;;;2.60;1.92;;;22.40;69.30;;;;;;6119948;28;80844;-61
2022/09/17 01:53:33;;;;;;;2.60;2.13;;;22.40;69.40;;;;;;6121856;28;81302;-61
2022/09/17 01:56:33;;;;;;;2.80;1.88;;;22.40;69.40;;;;;;6103744;28;80809;-61
2022/09/17 01:59:34;;;;;;;2.72;1.90;;;22.40;69.30;;;;;;6106432;28;82479;-61
2022/09/17 02:02:34;;;;;;;2.13;1.75;;;22.40;69.20;;;;;;6112262;28;81611;-62
2022/09/17 02:05:34;;;;;;;2.42;1.63;;;22.40;69.30;;;;;;6100259;28;80750;-55
2022/09/17 02:08:35;;;;;;;1.95;1.75;;;22.40;69.30;;;;;;6104768;28;80964;-55
2022/09/17 02:11:36;;;;;;;3.72;2.05;;;22.40;69.40;;;;;;6110716;28;81154;-56
2022/09/17 02:14:36;;;;;;;2.30;2.10;;;22.40;69.30;;;;;;6106896;28;80144;-56
2022/09/17 02:17:37;;;;;;;2.38;1.92;;;22.40;69.20;;;;;;6117474;28;83504;-52
2022/09/17 02:20:37;;;;;;;3.67;2.22;;;22.40;69.20;;;;;;6120631;28;80407;-56
2022/09/17 02:23:38;;;;;;;3.97;2.10;;;22.40;69.20;;;;;;6116153;28;89109;-54
2022/09/17 02:26:38;;;;;;;4.25;2.20;;;22.30;69.10;;;;;;6121877;28;80505;-56
2022/09/17 02:29:39;;;;;;;5.57;1.90;;;22.30;69.10;;;;;;6113175;28;80692;-54
2022/09/17 02:32:40;;;;;;;2.33;2.00;;;22.40;69.10;;;;;;6119986;28;82251;-56
2022/09/17 02:35:42;;;;;;;4.85;2.25;;;22.30;69.00;;;;;;6130396;28;83688;-56
2022/09/17 02:38:42;;;;;;;2.15;1.75;;;22.30;69.10;;;;;;6108087;28;80374;-57
2022/09/17 02:41:43;;;;;;;2.05;1.70;;;22.30;69.00;;;;;;6109618;28;80831;-56
2022/09/17 02:44:43;;;;;;;2.10;1.85;;;22.30;69.00;;;;;;6112021;28;80145;-57
2022/09/17 02:47:44;;;;;;;2.00;1.73;;;22.30;69.00;;;;;;6106368;28;80747;-57
2022/09/17 02:50:44;;;;;;;2.78;1.88;;;22.40;69.00;;;;;;6126682;28;84382;-54
2022/09/17 02:53:45;;;;;;;2.63;1.95;;;22.30;69.00;;;;;;6122393;28;80462;-56
2022/09/17 02:56:45;;;;;;;1.60;1.48;;;22.30;69.10;;;;;;6120893;28;88030;-56
2022/09/17 02:59:46;;;;;;;1.88;1.70;;;22.30;68.90;;;;;;6117067;28;81017;-61
2022/09/17 03:02:46;;;;;;;2.38;1.55;;;22.30;68.90;;;;;;6119033;28;84598;-62
2022/09/17 03:05:47;;;;;;;2.58;1.80;;;22.40;69.30;;;;;;6118235;28;80630;-61
2022/09/17 03:08:47;;;;;;;2.38;1.80;;;22.40;69.10;;;;;;6128213;28;80622;-62
2022/09/17 03:11:48;;;;;;;1.95;1.67;;;22.40;69.10;;;;;;6126261;28;80866;-61
2022/09/17 03:14:48;;;;;;;2.38;1.90;;;22.30;69.00;;;;;;6129734;28;80523;-61
2022/09/17 03:17:49;;;;;;;1.92;1.63;;;22.30;69.10;;;;;;6126512;28;81169;-61
2022/09/17 03:20:49;;;;;;;2.33;1.80;;;22.40;69.10;;;;;;6115898;28;85494;-62
2022/09/17 03:23:50;;;;;;;2.40;1.60;;;22.40;69.20;;;;;;6122939;28;81365;-61
2022/09/17 03:26:51;;;;;;;2.33;1.70;;;22.40;69.20;;;;;;6108316;28;81992;-61
2022/09/17 03:29:51;;;;;;;2.25;1.50;;;22.40;69.30;;;;;;6119266;28;83939;-61
2022/09/17 03:32:52;;;;;;;2.20;1.92;;;22.40;69.10;;;;;;6105392;28;80427;-62
2022/09/17 03:35:52;;;;;;;1.83;1.55;;;22.40;69.10;;;;;;6105507;28;80465;-61
2022/09/17 03:38:53;;;;;;;3.97;1.95;;;22.40;69.00;;;;;;6122588;28;85598;-62
2022/09/17 03:41:53;;;;;;;2.70;1.95;;;22.40;69.00;;;;;;6121306;28;81215;-62
2022/09/17 03:44:54;;;;;;;1.85;1.48;;;22.40;69.00;;;;;;6126355;28;80523;-61
2022/09/17 03:47:55;;;;;;;2.72;1.88;;;22.40;69.00;;;;;;6133466;28;87380;-63
2022/09/17 03:50:56;;;;;;;3.95;1.75;;;22.40;69.00;;;;;;6128549;28;80402;-63
2022/09/17 03:53:56;;;;;;;1.95;1.50;;;22.30;68.90;;;;;;6126466;28;83356;-63
2022/09/17 03:56:57;;;;;;;1.33;1.20;;;22.30;68.80;;;;;;6134832;28;80358;-63
2022/09/17 03:59:57;;;;;;;2.63;1.73;;;22.40;68.90;;;;;;6132119;28;80729;-62
2022/09/17 04:02:58;;;;;;;2.85;1.98;;;22.30;68.80;;;;;;6146931;28;80443;-62
2022/09/17 04:05:58;;;;;;;1.77;1.67;;;22.30;68.80;;;;;;6130106;28;81011;-63
2022/09/17 04:08:59;;;;;;;1.60;1.50;;;22.30;68.90;;;;;;6127459;28;86589;-62
2022/09/17 04:12:00;;;;;;;1.90;1.65;;;22.30;68.80;;;;;;6130651;28;81465;-61
2022/09/17 04:15:00;;;;;;;1.70;1.60;;;22.30;68.70;;;;;;6141705;28;81498;-62
2022/09/17 04:18:01;;;;;;;2.13;1.58;;;22.30;68.70;;;;;;6147177;28;85517;-62
2022/09/17 04:21:02;;;;;;;2.20;1.65;;;22.30;68.70;;;;;;6139943;28;80130;-61
2022/09/17 04:24:02;;;;;;;2.47;1.83;;;22.30;68.70;;;;;;6151444;28;80736;-64
2022/09/17 04:27:03;;;;;;;2.67;1.80;;;22.30;68.80;;;;;;6125231;28;80767;-64
2022/09/17 04:30:03;;;;;;;2.35;1.80;;;22.30;69.50;;;;;;6115919;28;80802;-63
2022/09/17 04:33:04;;;;;;;2.35;1.80;;;22.30;68.70;;;;;;6105356;28;80810;-63
2022/09/17 04:36:04;;;;;;;2.58;1.67;;;22.40;68.90;;;;;;6115467;28;80447;-63
2022/09/17 04:39:05;;;;;;;1.40;1.30;;;22.40;68.90;;;;;;6129800;28;82400;-63
2022/09/17 04:42:05;;;;;;;1.45;1.35;;;22.30;69.00;;;;;;6126143;28;80347;-63
2022/09/17 04:45:06;;;;;;;1.63;1.42;;;22.30;69.00;;;;;;6122963;28;86695;-63
2022/09/17 04:48:06;;;;;;;2.35;1.48;;;22.30;68.90;;;;;;6100763;28;80449;-62
2022/09/17 04:51:07;;;;;;;2.58;1.67;;;22.30;68.80;;;;;;6123480;28;80249;-59
2022/09/17 04:54:07;;;;;;;1.80;1.60;;;22.30;68.90;;;;;;6122407;28;80279;-59
2022/09/17 04:57:08;;;;;;;2.53;1.60;;;22.30;68.80;;;;;;6107579;28;80615;-56
2022/09/17 05:00:09;;;;;;;2.78;2.20;;;22.40;69.00;;;;;;6108278;28;84080;-59
2022/09/17 05:03:10;;;;;;;2.33;1.77;;;22.40;69.00;;;;;;6115268;28;80410;-57
2022/09/17 05:06:10;;;;;;;20.38;2.42;;;22.40;69.40;;;;;;6111263;28;81752;-56
2022/09/17 05:09:11;;;;;;;2.75;1.70;;;22.40;69.60;;;;;;6113550;28;80533;-61
2022/09/17 05:12:11;;;;;;;6.72;1.70;;;22.40;69.50;;;;;;6125433;28;81054;-61
2022/09/17 05:15:11;;;;;;;3.88;2.13;;;22.40;69.50;;;;;;6128525;28;80201;-68
2022/09/17 05:18:12;;;;;;;4.18;2.00;;;22.40;69.80;;;;;;6127120;28;80867;-65
2022/09/17 05:21:13;;;;;;;4.10;1.90;;;22.50;69.50;;;;;;6127008;28;80447;-65
2022/09/17 05:24:13;;;;;;;4.30;2.03;;;22.50;69.50;;;;;;6123846;28;80871;-60
2022/09/17 05:27:14;;;;;;;10.98;2.22;;;22.50;69.60;;;;;;6102627;28;80741;-55
2022/09/17 05:30:14;;;;;;;4.65;2.00;;;22.50;70.20;;;;;;6113621;28;80375;-58
2022/09/17 05:33:15;;;;;;;3.58;2.10;;;22.50;70.50;;;;;;6106731;28;83501;-61
2022/09/17 05:36:15;;;;;;;52.50;19.50;;;22.50;70.60;;;;;;6120579;28;81566;-56
2022/09/17 05:39:16;;;;;;;349.98;128.80;;;22.60;70.80;;;;;;6114056;28;82910;-57
2022/09/17 05:42:16;;;;;;;821.67;367.70;;;22.60;71.20;;;;;;6114056;28;88849;-54
2022/09/17 05:45:17;;;;;;;1109.07;506.15;;;22.60;71.00;;;;;;6107841;28;87481;-57
2022/09/17 05:48:17;;;;;;;1197.32;544.50;;;22.60;71.10;;;;;;6093062;28;87417;-55
2022/09/17 05:51:18;;;;;;;1166.60;521.08;;;22.60;70.90;;;;;;6108615;28;85732;-55
2022/09/17 05:54:18;;;;;;;930.95;423.85;;;22.60;70.90;;;;;;6090332;28;92643;-59
2022/09/17 05:57:19;;;;;;;858.35;383.90;;;22.60;71.00;;;;;;6103536;28;86139;-55
2022/09/17 06:00:19;;;;;;;834.70;379.85;;;22.60;71.10;;;;;;6110224;28;88126;-58
2022/09/17 06:03:21;;;;;;;714.85;320.67;;;22.60;71.60;;;;;;6111624;28;88239;-61
2022/09/17 06:06:21;;;;;;;595.60;237.57;;;22.60;71.30;;;;;;6100126;28;85497;-59
2022/09/17 06:09:22;;;;;;;518.28;206.48;;;22.60;70.10;;;;;;6103340;28;85778;-59
2022/09/17 06:12:22;;;;;;;460.98;158.55;;;22.50;70.00;;;;;;6121544;28;85773;-59
2022/09/17 06:15:23;;;;;;;363.65;138.38;;;22.40;69.80;;;;;;6123883;28;85788;-59
2022/09/17 06:18:23;;;;;;;298.30;115.38;;;22.50;69.80;;;;;;6121749;28;86168;-59
2022/09/17 06:21:24;;;;;;;269.85;101.45;;;22.40;69.50;;;;;;6120993;28;85906;-52
2022/09/17 06:24:24;;;;;;;258.90;92.72;;;22.40;69.50;;;;;;6116919;28;88713;-55
2022/09/17 06:27:25;;;;;;;196.13;75.00;;;22.40;69.40;;;;;;6116858;28;85797;-53
2022/09/17 06:30:25;;;;;;;164.38;63.88;;;22.40;69.00;;;;;;6114241;28;83022;-55
2022/09/17 06:33:26;;;;;;;157.20;60.70;;;22.40;69.00;;;;;;6111437;28;83416;-53
2022/09/17 06:36:26;;;;;;;139.80;52.97;;;22.40;69.00;;;;;;6113753;28;83506;-55
2022/09/17 06:39:27;;;;;;;128.10;48.08;;;22.40;69.10;;;;;;6115839;28;83263;-55
2022/09/17 06:42:27;;;;;;;117.47;44.30;;;22.30;68.80;;;;;;6124597;28;82996;-54
2022/09/17 06:45:29;;;;;;;102.72;37.90;;;22.30;68.60;;;;;;6134869;28;86402;-53
2022/09/17 06:48:30;;;;;;;98.85;33.95;;;22.30;68.70;;;;;;6104828;28;83329;-53
2022/09/17 06:51:31;;;;;;;84.53;28.98;;;22.30;68.50;;;;;;6111041;28;83274;-54
2022/09/17 06:54:31;;;;;;;87.30;31.83;;;22.30;68.40;;;;;;6107534;28;82838;-53
2022/09/17 06:57:32;;;;;;;87.32;35.08;;;22.30;69.30;;;;;;6105529;28;88456;-55
2022/09/17 07:00:32;;;;;;;101.28;38.55;;;22.30;70.80;;;;;;6100537;28;83909;-51
2022/09/17 07:03:33;;;;;;;113.88;39.20;;;22.30;71.70;;;;;;6101786;28;82943;-49
2022/09/17 07:06:33;;;;;;;96.45;37.22;;;22.40;72.20;;;;;;6101540;28;83359;-55
2022/09/17 07:09:34;;;;;;;101.80;38.65;;;22.50;72.40;;;;;;6100950;28;84147;-55
2022/09/17 07:12:34;;;;;;;102.30;41.22;;;22.50;73.00;;;;;;6117303;28;85079;-53
2022/09/17 07:15:35;;;;;;;96.68;37.20;;;22.50;73.90;;;;;;6140053;28;83176;-60
2022/09/17 07:18:35;;;;;;;99.70;41.00;;;22.50;74.80;;;;;;6148889;28;83899;-60
2022/09/17 07:21:36;;;;;;;106.97;40.88;;;22.50;75.60;;;;;;6128068;28;83555;-59
2022/09/17 07:24:36;;;;;;;106.43;38.95;;;22.60;76.10;;;;;;6132349;28;83096;-63
2022/09/17 07:27:37;;;;;;;96.68;38.13;;;22.60;75.80;;;;;;6134467;28;84159;-61
2022/09/17 07:30:37;;;;;;;96.22;38.00;;;22.70;76.50;;;;;;6137734;28;83783;-60
2022/09/17 07:33:38;;;;;;;101.78;38.97;;;22.70;76.70;;;;;;6107613;28;83152;-61
2022/09/17 07:36:38;;;;;;;109.30;37.40;;;22.70;76.40;;;;;;6102359;28;86286;-56
2022/09/17 07:39:39;;;;;;;95.57;35.42;;;22.70;76.10;;;;;;6110125;28;86528;-54
2022/09/17 07:42:40;;;;;;;85.20;35.30;;;22.70;76.20;;;;;;6096893;28;84810;-55
2022/09/17 07:45:40;;;;;;;70.10;31.75;;;22.70;76.60;;;;;;6098709;28;83384;-53
2022/09/17 07:48:41;;;;;;;82.38;33.90;;;22.70;77.00;;;;;;6095838;28;83171;-55
2022/09/17 07:51:41;;;;;;;75.53;31.73;;;22.70;77.00;;;;;;6091479;28;82916;-54
2022/09/17 07:54:42;;;;;;;88.60;32.35;;;22.70;77.10;;;;;;6097697;28;84185;-57
2022/09/17 07:57:42;;;;;;;87.95;30.88;;;22.80;76.90;;;;;;6091197;28;82917;-58
2022/09/17 08:00:43;;;;;;;88.15;31.17;;;22.80;77.30;;;;;;6096222;28;82949;-56
2022/09/17 08:03:43;;;;;;;79.47;31.17;;;22.80;77.10;;;;;;6103589;28;83444;-58
2022/09/17 08:06:47;;;;;;;72.70;30.35;;;22.90;77.30;;;;;;6096574;28;83903;-54
2022/09/17 08:09:47;;;;;;;77.25;29.58;;;22.90;77.30;;;;;;6096925;28;83452;-52
2022/09/17 08:12:48;;;;;;;68.75;29.50;;;22.80;77.00;;;;;;6099645;28;83370;-53
2022/09/17 08:15:48;;;;;;;68.10;29.40;;;22.80;77.10;;;;;;6089854;28;82861;-53
2022/09/17 08:18:49;;;;;;;77.22;27.38;;;22.90;77.50;;;;;;6096409;28;83387;-53
2022/09/17 08:21:51;;;;;;;66.80;26.30;;;22.90;77.20;;;;;;6102089;28;83371;-52
2022/09/17 08:24:51;;;;;;;55.42;25.75;;;22.90;77.50;;;;;;6097932;28;83627;-49
2022/09/17 08:27:51;;;;;;;66.45;26.23;;;22.90;77.60;;;;;;6096559;28;84102;-49
2022/09/17 08:30:52;;;;;;;64.10;25.42;;;22.90;77.40;;;;;;6101232;28;83221;-52
2022/09/17 08:33:52;;;;;;;65.60;23.40;;;22.90;76.90;;;;;;6123902;28;82878;-53
2022/09/17 08:36:53;;;;;;;61.53;24.45;;;22.90;76.90;;;;;;6118454;28;83088;-58
2022/09/17 08:39:53;;;;;;;70.88;24.58;;;22.90;77.00;;;;;;6123097;28;83441;-54
2022/09/17 08:42:56;;;;;;;51.22;23.20;;;22.90;76.80;;;;;;6118221;28;83564;-55
2022/09/17 08:45:56;;;;;;;51.78;20.73;;;23.00;76.30;;;;;;6114348;28;83379;-53
2022/09/17 08:48:57;;;;;;;54.70;20.95;;;23.00;76.40;;;;;;6118804;28;83299;-55
2022/09/17 08:51:57;;;;;;;49.28;19.33;;;23.00;76.00;;;;;;6118239;28;83147;-60
2022/09/17 08:54:58;;;;;;;65.05;21.67;;;23.00;75.90;;;;;;6121616;28;83277;-59
2022/09/17 08:57:58;;;;;;;41.92;16.85;;;23.00;75.80;;;;;;6111452;28;82762;-60
2022/09/17 09:00:59;;;;;;;38.63;15.35;;;23.10;74.90;;;;;;6115171;28;84645;-58
2022/09/17 09:04:01;;;;;;;35.63;15.10;;;23.10;74.00;;;;;;6121908;28;83052;-58
2022/09/17 09:07:02;;;;;;;37.55;14.52;;;23.10;74.20;;;;;;6114188;28;87240;-63
2022/09/17 09:10:03;;;;;;;32.33;14.55;;;23.10;74.20;;;;;;6105142;28;83058;-62
2022/09/17 09:13:03;;;;;;;31.35;13.00;;;23.20;73.80;;;;;;6107704;28;86946;-62
2022/09/17 09:16:04;;;;;;;25.30;10.75;;;23.20;73.10;;;;;;6105867;28;83790;-63
2022/09/17 09:19:04;;;;;;;25.63;10.15;;;23.20;72.40;;;;;;6110853;28;83790;-62
2022/09/17 09:22:05;;;;;;;24.45;9.85;;;23.20;71.70;;;;;;6109396;28;87429;-63
2022/09/17 09:25:06;;;;;;;20.08;9.73;;;23.20;71.70;;;;;;6116279;28;82275;-62
2022/09/17 09:28:06;;;;;;;15.43;8.70;;;23.20;71.40;;;;;;6105581;28;86761;-61
2022/09/17 09:31:07;;;;;;;17.38;7.55;;;23.20;70.60;;;;;;6115048;28;80519;-61
2022/09/17 09:34:07;;;;;;;13.82;7.10;;;23.10;69.10;;;;;;6127809;28;80411;-63
2022/09/17 09:37:08;;;;;;;52.80;21.15;;;23.10;68.80;;;;;;6127875;28;80641;-62
2022/09/17 09:40:08;;;;;;;111.78;45.97;;;23.10;68.50;;;;;;6122382;28;82895;-62
2022/09/17 09:43:09;;;;;;;207.50;88.18;;;23.10;68.20;;;;;;6122303;28;83008;-60
2022/09/17 09:46:09;;;;;;;301.63;125.80;;;23.10;68.00;;;;;;6120682;28;83364;-64
2022/09/17 09:49:10;;;;;;;268.52;114.22;;;23.10;67.60;;;;;;6130085;28;85405;-60
2022/09/17 09:52:11;;;;;;;228.77;95.25;;;23.00;66.80;;;;;;6123299;28;89792;-61
2022/09/17 09:55:11;;;;;;;237.90;99.80;;;23.00;66.30;;;;;;6122578;28;88138;-62
2022/09/17 09:58:12;;;;;;;244.57;104.85;;;23.00;66.00;;;;;;6124427;28;83195;-61
2022/09/17 10:01:12;;;;;;;277.42;114.22;;;23.00;66.80;;;;;;6117357;28;86612;-61
2022/09/17 10:04:14;;;;;;;257.02;106.70;;;23.10;65.70;;;;;;6103637;28;88951;-61
2022/09/17 10:07:15;;;;;;;201.65;82.32;;;23.00;65.30;;;;;;6109713;28;93144;-61
2022/09/17 10:10:15;;;;;;;175.50;68.30;;;23.00;64.50;;;;;;6128568;28;85366;-61
2022/09/17 10:13:17;;;;;;;162.70;62.00;;;23.00;64.60;;;;;;6140337;28;86452;-61
2022/09/17 10:16:18;;;;;;;112.65;43.42;;;22.90;64.50;;;;;;6135907;28;83031;-60
2022/09/17 10:19:18;;;;;;;76.65;31.15;;;22.90;64.20;;;;;;6137275;28;85572;-60
2022/09/17 10:22:19;;;;;;;68.38;30.70;;;22.90;63.60;;;;;;6144267;28;84600;-59
2022/09/17 10:25:19;;;;;;;59.78;26.23;;;22.90;63.20;;;;;;6150838;28;85081;-60
2022/09/17 10:28:20;;;;;;;45.95;18.55;;;22.90;64.50;;;;;;6138084;28;83347;-64
2022/09/17 10:31:20;;;;;;;39.60;16.25;;;23.00;64.10;;;;;;6126552;28;85954;-60
2022/09/17 10:34:21;;;;;;;42.20;15.77;;;23.00;64.00;;;;;;6143542;28;84601;-60
2022/09/17 10:37:21;;;;;;;40.55;17.52;;;23.10;64.00;;;;;;6149763;28;83163;-60
2022/09/17 10:40:22;;;;;;;37.45;12.95;;;23.10;64.50;;;;;;6126581;28;83214;-55
2022/09/17 10:43:22;;;;;;;31.33;10.82;;;23.10;63.30;;;;;;6134648;28;83605;-54
2022/09/17 10:46:23;;;;;;;16.90;9.15;;;23.10;63.10;;;;;;6139714;28;83563;-54
2022/09/17 10:49:23;;;;;;;24.27;11.02;;;23.10;63.10;;;;;;6145223;28;83241;-53
2022/09/17 10:52:24;;;;;;;42.85;11.75;;;23.00;63.40;;;;;;6142491;28;83162;-52
2022/09/17 10:55:24;;;;;;;32.88;12.02;;;23.00;64.70;;;;;;6144833;28;83239;-53
2022/09/17 10:58:25;;;;;;;25.58;10.32;;;23.00;65.50;;;;;;6148743;28;86094;-53
2022/09/17 11:01:26;;;;;;;33.28;12.35;;;23.00;65.50;;;;;;6140933;28;83561;-53
2022/09/17 11:04:26;;;;;;;31.15;9.82;;;22.90;66.90;;;;;;6146079;28;84445;-53
2022/09/17 11:07:27;;;;;;;23.23;9.43;;;22.90;66.70;;;;;;6151819;28;83220;-53
2022/09/17 11:10:27;;;;;;;24.80;9.85;;;23.00;67.60;;;;;;6143359;28;80248;-54
2022/09/17 11:13:28;;;;;;;33.50;10.93;;;23.00;68.40;;;;;;6139792;28;80164;-54
2022/09/17 11:16:28;;;;;;;21.95;10.02;;;23.00;70.80;;;;;;6137238;28;83427;-59
2022/09/17 11:19:29;;;;;;;21.77;8.93;;;23.00;70.00;;;;;;6126479;28;83677;-61
2022/09/17 11:22:29;;;;;;;18.40;8.80;;;23.00;69.60;;;;;;6138633;28;83981;-63
2022/09/17 11:25:30;;;;;;;14.73;6.97;;;23.00;69.50;;;;;;6129745;28;82244;-62
2022/09/17 11:28:30;;;;;;;16.42;6.57;;;23.00;68.70;;;;;;6127918;28;81739;-60
2022/09/17 11:31:31;;;;;;;17.77;6.90;;;23.00;68.50;;;;;;6131223;28;80320;-60
2022/09/17 11:34:32;;;;;;;16.80;5.68;;;23.00;69.20;;;;;;6134878;28;80805;-60
2022/09/17 11:37:33;;;;;;;10.63;5.22;;;23.00;69.10;;;;;;6150527;28;81028;-61
2022/09/17 11:40:34;;;;;;;13.88;5.97;;;23.00;69.60;;;;;;6129193;28;80621;-59
2022/09/17 11:43:34;;;;;;;25.48;5.45;;;23.00;70.70;;;;;;6151895;28;83536;-60
2022/09/17 11:46:35;;;;;;;12.02;5.75;;;23.00;71.10;;;;;;6148240;28;80620;-60
2022/09/17 11:49:35;;;;;;;12.00;5.60;;;23.00;70.80;;;;;;6151942;28;84842;-60
2022/09/17 11:52:35;;;;;;;10.98;5.75;;;23.00;72.60;;;;;;6149955;28;80075;-59
2022/09/17 11:55:36;;;;;;;11.00;5.40;;;23.00;73.30;;;;;;6148257;28;86711;-59
2022/09/17 11:58:36;;;;;;;10.48;4.57;;;23.10;72.90;;;;;;6124915;28;82811;-61
2022/09/17 12:01:37;;;;;;;5.00;2.92;;;23.00;70.00;;;;;;6106791;28;81721;-60
2022/09/17 12:04:39;;;;;;;4.95;1.90;;;23.00;67.60;;;;;;6091149;28;80768;-61
2022/09/17 12:07:42;;;;;;;2.88;1.95;;;22.90;64.50;;;;;;6103682;28;80864;-59
2022/09/17 12:10:43;;;;;;;4.38;2.00;;;22.80;63.70;;;;;;6108993;28;80325;-55
2022/09/17 12:13:47;;;;;;;7.10;3.30;;;22.80;63.50;;;;;;6106584;28;80504;-57
2022/09/17 12:16:48;;;;;;;8.98;2.78;;;22.80;63.30;;;;;;6103049;28;80110;-58
2022/09/17 12:19:48;;;;;;;2.80;1.83;;;22.80;63.30;;;;;;6110546;28;80809;-59
2022/09/17 12:22:49;;;;;;;8.77;2.72;;;22.70;62.60;;;;;;6119705;28;80581;-58
2022/09/17 12:25:49;;;;;;;6.97;2.38;;;22.70;62.80;;;;;;6107754;28;80353;-57
2022/09/17 12:28:50;;;;;;;9.57;2.00;;;22.70;63.00;;;;;;6103140;28;85645;-58
2022/09/17 12:31:50;;;;;;;2.42;1.77;;;22.70;62.50;;;;;;6105866;28;81896;-58
2022/09/17 12:34:52;;;;;;;3.22;2.15;;;22.60;62.80;;;;;;6104941;28;80323;-57
2022/09/17 12:37:52;;;;;;;4.57;2.42;;;22.60;62.50;;;;;;6108109;28;85044;-57
2022/09/17 12:40:53;;;;;;;2.30;1.80;;;22.60;63.10;;;;;;6106468;28;81209;-58
2022/09/17 12:43:53;;;;;;;4.68;1.90;;;22.50;62.30;;;;;;6101870;28;80871;-57
2022/09/17 12:46:54;;;;;;;3.45;2.28;;;22.60;62.80;;;;;;6117881;28;80463;-58
2022/09/17 12:49:54;;;;;;;3.88;2.42;;;22.60;62.50;;;;;;6107932;28;80144;-58
2022/09/17 12:52:56;;;;;;;7.53;2.38;;;22.60;62.10;;;;;;6091873;28;83191;-60
2022/09/17 12:55:56;;;;;;;4.15;2.42;;;22.60;62.30;;;;;;6101762;28;83919;-60
2022/09/17 12:58:57;;;;;;;4.97;2.28;;;22.60;62.30;;;;;;6101202;28;82064;-59
2022/09/17 13:01:57;;;;;;;3.50;2.08;;;22.50;61.70;;;;;;6117985;28;80843;-60
2022/09/17 13:04:58;;;;;;;3.90;2.10;;;22.50;62.00;;;;;;6101805;28;80164;-57
2022/09/17 13:07:58;;;;;;;6.60;2.40;;;22.40;62.00;;;;;;6110815;28;80156;-58
2022/09/17 13:10:59;;;;;;;4.50;1.95;;;22.50;62.50;;;;;;6091854;28;83337;-58
2022/09/17 13:13:59;;;;;;;3.78;2.08;;;22.50;61.90;;;;;;6102554;28;87852;-56
2022/09/17 13:17:00;;;;;;;4.50;2.45;;;22.50;62.20;;;;;;6120839;28;81871;-58
2022/09/17 13:20:00;;;;;;;2.30;1.77;;;22.50;62.70;;;;;;6105158;28;87134;-59
2022/09/17 13:23:01;;;;;;;3.53;2.05;;;22.50;62.80;;;;;;6108996;28;82423;-58
2022/09/17 13:26:04;;;;;;;2.63;1.67;;;22.60;63.00;;;;;;6119766;28;80973;-56
2022/09/17 13:29:08;;;;;;;4.45;2.55;;;22.60;63.30;;;;;;6108828;28;89251;-54
2022/09/17 13:32:10;;;;;;;4.80;2.47;;;22.60;63.40;;;;;;6133813;28;81076;-58
2022/09/17 13:35:11;;;;;;;5.93;2.10;;;22.60;63.60;;;;;;6139304;28;81938;-55
2022/09/17 13:38:11;;;;;;;18.80;2.15;;;22.60;63.80;;;;;;6120565;28;81347;-59
2022/09/17 13:41:12;;;;;;;10.63;2.10;;;22.70;63.80;;;;;;6149106;28;85998;-57
2022/09/17 13:44:13;;;;;;;3.17;2.03;;;22.70;63.80;;;;;;6150056;28;80953;-57
2022/09/17 13:47:13;;;;;;;3.95;1.75;;;22.60;63.90;;;;;;6126893;28;80850;-57
2022/09/17 13:50:14;;;;;;;2.55;1.95;;;22.70;64.10;;;;;;6111015;28;81032;-58
2022/09/17 13:53:14;;;;;;;3.53;1.90;;;22.70;64.20;;;;;;6119575;28;82048;-58
2022/09/17 13:56:15;;;;;;;3.08;1.80;;;22.80;64.30;;;;;;6115717;28;80170;-54
2022/09/17 13:59:15;;;;;;;1.90;1.70;;;22.80;64.20;;;;;;6116796;28;81161;-58
2022/09/17 14:02:16;;;;;;;3.80;2.25;;;22.80;64.50;;;;;;6114919;28;81314;-59
2022/09/17 14:05:16;;;;;;;3.30;1.85;;;22.80;64.40;;;;;;6104615;28;81022;-57
2022/09/17 14:08:17;;;;;;;2.63;2.08;;;22.80;64.50;;;;;;6128179;28;80304;-58
2022/09/17 14:11:17;;;;;;;3.70;1.90;;;22.80;64.40;;;;;;6113994;28;80375;-59
2022/09/17 14:14:18;;;;;;;3.08;1.95;;;22.80;64.50;;;;;;6114857;28;80470;-57
2022/09/17 14:17:18;;;;;;;4.47;1.98;;;22.80;64.40;;;;;;6118358;28;80278;-57
2022/09/17 14:20:19;;;;;;;4.97;2.20;;;22.80;64.00;;;;;;6114780;28;82540;-60
2022/09/17 14:23:20;;;;;;;3.15;2.15;;;22.90;64.50;;;;;;6104241;28;80707;-60
2022/09/17 14:26:20;;;;;;;4.35;2.17;;;22.80;64.40;;;;;;6110785;28;80209;-61
2022/09/17 14:29:21;;;;;;;2.80;1.80;;;22.80;64.40;;;;;;6121419;28;86198;-61
2022/09/17 14:32:21;;;;;;;2.75;2.20;;;22.80;64.40;;;;;;6123206;28;82333;-60
2022/09/17 14:35:22;;;;;;;2.33;1.73;;;22.80;64.60;;;;;;6113106;28;81931;-60
2022/09/17 14:38:22;;;;;;;32.55;14.40;;;22.80;64.60;;;;;;6112236;28;80253;-55
2022/09/17 14:41:23;;;;;;;118.63;50.15;;;22.80;64.60;;;;;;6115276;28;83414;-55
2022/09/17 14:44:24;;;;;;;178.82;76.72;;;22.80;64.70;;;;;;6123929;28;83582;-56
2022/09/17 14:47:25;;;;;;;150.63;63.00;;;22.80;64.70;;;;;;6126114;28;86551;-57
2022/09/17 14:50:26;;;;;;;71.30;31.77;;;22.80;64.80;;;;;;6122927;28;86302;-56
2022/09/17 14:53:26;;;;;;;94.15;38.55;;;22.80;64.20;;;;;;6123616;28;83613;-56
2022/09/17 14:56:27;;;;;;;81.15;34.35;;;22.70;64.50;;;;;;6113879;28;82979;-54
2022/09/17 14:59:27;;;;;;;63.97;21.92;;;22.70;64.60;;;;;;6122439;28;83020;-57
2022/09/17 15:02:28;;;;;;;52.50;22.75;;;22.70;63.90;;;;;;6125721;28;87465;-57
2022/09/17 15:05:30;;;;;;;45.97;18.95;;;22.70;64.50;;;;;;6101693;28;83074;-56
2022/09/17 15:08:30;;;;;;;39.17;16.15;;;22.70;64.70;;;;;;6117747;28;83303;-55
2022/09/17 15:11:31;;;;;;;35.75;15.55;;;22.80;64.60;;;;;;6103730;28;83503;-56
2022/09/17 15:14:31;;;;;;;29.58;11.95;;;22.80;65.00;;;;;;6114852;28;89400;-54
2022/09/17 15:17:32;;;;;;;28.63;12.70;;;22.80;64.70;;;;;;6114812;28;83486;-54
2022/09/17 15:20:33;;;;;;;45.88;13.27;;;22.80;64.90;;;;;;6118979;28;82990;-55
2022/09/17 15:23:33;;;;;;;27.95;10.85;;;22.80;64.90;;;;;;6113796;28;83717;-57
2022/09/17 15:26:33;;;;;;;26.25;11.07;;;22.80;64.60;;;;;;6118843;28;83459;-52